createdAt,value
2018-07-16T00:01:26.845Z,3.37
2018-07-16T00:03:54.979Z,3.50
2018-07-16T00:06:34.800Z,3.53
2018-07-16T00:09:03.361Z,3.33
2018-07-16T00:11:33.557Z,3.30
2018-07-16T00:14:01.693Z,3.23
2018-07-16T00:16:32.799Z,3.43
2018-07-16T00:19:00.905Z,4.00
2018-07-16T00:21:35.470Z,3.87
2018-07-16T00:24:03.823Z,4.10
2018-07-16T00:26:38.653Z,3.50
2018-07-16T00:29:06.832Z,3.80
2018-07-16T00:31:37.062Z,3.97
2018-07-16T00:34:09.810Z,4.03
2018-07-16T00:36:43.227Z,3.97
2018-07-16T00:39:13.991Z,3.43
2018-07-16T00:41:42.440Z,3.77
2018-07-16T00:44:10.638Z,4.03
2018-07-16T00:46:43.030Z,3.60
2018-07-16T00:49:17.013Z,3.40
2018-07-16T00:51:45.364Z,4.20
2018-07-16T00:54:13.619Z,4.40
2018-07-16T00:56:46.973Z,4.70
2018-07-16T00:59:21.947Z,4.83
2018-07-16T01:01:52.190Z,4.37
2018-07-16T01:04:20.474Z,5.50
2018-07-16T01:06:52.832Z,5.20
2018-07-16T01:09:27.375Z,5.27
2018-07-16T01:11:59.830Z,5.00
2018-07-16T01:14:28.209Z,5.07
2018-07-16T01:17:02.801Z,4.90
2018-07-16T01:19:32.984Z,5.23
2018-07-16T01:22:01.368Z,5.00
2018-07-16T01:24:32.790Z,5.60
2018-07-16T01:27:10.383Z,5.20
2018-07-16T01:29:48.474Z,5.00
2018-07-16T01:32:18.921Z,5.03
2018-07-16T01:34:47.170Z,4.87
2018-07-16T01:37:15.324Z,4.60
2018-07-16T01:39:50.728Z,4.80
2018-07-16T01:42:21.646Z,4.63
2018-07-16T01:44:49.952Z,5.20
2018-07-16T01:47:20.848Z,5.07
2018-07-16T01:49:59.411Z,5.13
2018-07-16T01:52:38.990Z,5.33
2018-07-16T01:55:20.197Z,5.50
2018-07-16T01:58:00.310Z,4.57
2018-07-16T02:00:28.759Z,5.20
2018-07-16T02:02:56.925Z,5.43
2018-07-16T02:05:30.138Z,5.60
2018-07-16T02:08:03.190Z,5.63
2018-07-16T02:10:31.385Z,5.17
2018-07-16T02:13:04.859Z,5.77
2018-07-16T02:15:35.728Z,5.50
2018-07-16T02:18:03.951Z,5.20
2018-07-16T02:20:32.128Z,5.93
2018-07-16T02:23:00.633Z,4.90
2018-07-16T02:25:41.306Z,5.37
2018-07-16T02:28:10.210Z,5.67
2018-07-16T02:30:41.067Z,5.83
2018-07-16T02:33:12.868Z,6.23
2018-07-16T02:35:41.265Z,5.93
2018-07-16T02:38:09.533Z,5.90
2018-07-16T02:40:44.483Z,5.80
2018-07-16T02:43:12.823Z,6.50
2018-07-16T02:45:41.092Z,5.63
2018-07-16T02:48:18.883Z,6.00
2018-07-16T02:50:50.071Z,6.83
2018-07-16T02:53:18.229Z,6.17
2018-07-16T02:55:54.329Z,6.33
2018-07-16T02:58:23.008Z,5.90
2018-07-16T03:00:53.283Z,7.63
2018-07-16T03:03:24.455Z,6.43
2018-07-16T03:05:52.609Z,6.00
2018-07-16T03:08:28.159Z,6.33
2018-07-16T03:11:02.731Z,6.03
2018-07-16T03:13:33.733Z,6.40
2018-07-16T03:16:09.902Z,5.70
2018-07-16T03:18:38.070Z,6.17
2018-07-16T03:21:15.457Z,6.03
2018-07-16T03:23:46.782Z,5.73
2018-07-16T03:26:14.892Z,5.63
2018-07-16T03:28:43.247Z,6.33
2018-07-16T03:31:11.666Z,7.03
2018-07-16T03:33:39.916Z,6.27
2018-07-16T03:36:11.050Z,6.57
2018-07-16T03:39:00.030Z,6.67
2018-07-16T03:41:28.210Z,6.20
2018-07-16T03:44:02.669Z,6.70
2018-07-16T03:46:35.477Z,6.70
2018-07-16T03:49:03.651Z,7.23
2018-07-16T03:51:39.560Z,7.47
2018-07-16T03:54:07.875Z,6.53
2018-07-16T03:56:36.075Z,7.07
2018-07-16T03:59:10.493Z,7.50
2018-07-16T04:01:41.605Z,7.50
2018-07-16T04:04:12.117Z,6.83
2018-07-16T04:06:44.312Z,7.60
2018-07-16T04:09:12.637Z,7.37
2018-07-16T04:11:40.779Z,7.63
2018-07-16T04:14:15.389Z,7.13
2018-07-16T04:16:47.913Z,7.70
2018-07-16T04:19:18.896Z,8.07
2018-07-16T04:21:56.946Z,8.13
2018-07-16T04:24:25.094Z,8.03
2018-07-16T04:27:05.347Z,6.93
2018-07-16T04:29:37.825Z,5.97
2018-07-16T04:32:11.089Z,6.60
2018-07-16T04:34:50.662Z,6.23
2018-07-16T04:37:25.077Z,6.57
2018-07-16T04:39:55.993Z,6.90
2018-07-16T04:42:24.238Z,7.00
2018-07-16T04:44:57.224Z,6.77
2018-07-16T04:47:27.422Z,8.50
2018-07-16T04:49:55.773Z,8.40
2018-07-16T04:52:30.143Z,8.60
2018-07-16T04:55:04.690Z,8.37
2018-07-16T04:57:37.213Z,8.20
2018-07-16T05:00:18.724Z,8.17
2018-07-16T05:02:46.897Z,8.80
2018-07-16T05:05:19.994Z,9.03
2018-07-16T05:07:52.000Z,9.47
2018-07-16T05:10:20.193Z,9.83
2018-07-16T05:12:52.420Z,9.37
2018-07-16T05:15:28.506Z,9.20
2018-07-16T05:17:56.646Z,9.47
2018-07-16T05:20:29.076Z,7.53
2018-07-16T05:23:06.713Z,8.33
2018-07-16T05:25:37.700Z,8.57
2018-07-16T05:28:07.865Z,8.23
2018-07-16T05:30:36.112Z,8.93
2018-07-16T05:33:10.808Z,8.27
2018-07-16T05:35:38.955Z,8.37
2018-07-16T05:38:10.164Z,8.10
2018-07-16T05:40:49.772Z,7.43
2018-07-16T05:43:20.910Z,7.93
2018-07-16T05:45:51.243Z,6.97
2018-07-16T05:48:19.413Z,8.00
2018-07-16T05:50:50.432Z,7.60
2018-07-16T05:53:29.190Z,7.07
2018-07-16T05:56:05.774Z,7.70
2018-07-16T05:58:36.780Z,7.60
2018-07-16T06:01:07.071Z,7.70
2018-07-16T06:03:35.553Z,7.53
2018-07-16T06:06:03.880Z,7.60
2018-07-16T06:08:32.437Z,7.80
2018-07-16T06:11:00.647Z,6.90
2018-07-16T06:13:34.730Z,7.07
2018-07-16T06:16:09.354Z,6.07
2018-07-16T06:18:40.294Z,6.77
2018-07-16T06:21:08.673Z,6.63
2018-07-16T06:23:36.814Z,7.43
2018-07-16T06:26:07.084Z,6.80
2018-07-16T06:28:46.854Z,6.90
2018-07-16T06:31:17.855Z,7.00
2018-07-16T06:33:48.382Z,7.07
2018-07-16T06:36:21.216Z,6.83
2018-07-16T06:41:29.512Z,7.80
2018-07-16T06:44:00.129Z,6.67
2018-07-16T06:46:31.039Z,6.83
2018-07-16T06:49:04.047Z,5.93
2018-07-16T06:51:32.582Z,6.63
2018-07-16T06:54:03.460Z,6.57
2018-07-16T06:56:40.133Z,6.77
2018-07-16T06:59:08.310Z,6.63
2018-07-16T07:01:38.911Z,6.40
2018-07-16T07:04:13.669Z,6.77
2018-07-16T07:06:41.839Z,6.50
2018-07-16T07:09:16.262Z,5.73
2018-07-16T07:11:53.023Z,6.10
2018-07-16T07:14:21.343Z,5.77
2018-07-16T07:16:53.718Z,5.93
2018-07-16T07:19:23.744Z,5.53
2018-07-16T07:21:54.162Z,5.80
2018-07-16T07:24:22.492Z,4.70
2018-07-16T07:26:50.784Z,5.20
2018-07-16T07:29:19.139Z,4.80
2018-07-16T07:31:57.380Z,4.83
2018-07-16T07:34:35.866Z,5.13
2018-07-16T07:37:10.427Z,4.03
2018-07-16T07:39:44.797Z,4.00
2018-07-16T07:42:24.673Z,4.17
2018-07-16T07:44:53.010Z,4.30
2018-07-16T07:47:21.330Z,4.53
2018-07-16T07:49:49.623Z,4.27
2018-07-16T07:52:24.207Z,4.23
2018-07-16T07:54:55.462Z,3.50
2018-07-16T07:57:27.225Z,4.30
2018-07-16T07:59:59.761Z,3.63
2018-07-16T08:02:27.898Z,3.70
2018-07-16T08:05:00.662Z,3.37
2018-07-16T08:07:34.913Z,3.57
2018-07-16T08:10:09.151Z,3.90
2018-07-16T08:12:39.584Z,3.43
2018-07-16T08:15:10.961Z,3.77
2018-07-16T08:17:39.248Z,3.97
2018-07-16T08:20:09.694Z,3.67
2018-07-16T08:22:37.857Z,3.40
2018-07-16T08:25:12.505Z,2.60
2018-07-16T08:27:40.784Z,2.97
2018-07-16T08:30:11.861Z,3.27
2018-07-16T08:32:51.871Z,2.60
2018-07-16T08:35:20.087Z,2.50
2018-07-16T08:37:54.624Z,2.70
2018-07-16T08:40:28.638Z,2.60
2018-07-16T08:43:08.168Z,2.53
2018-07-16T08:45:40.443Z,2.40
2018-07-16T08:48:11.557Z,2.40
2018-07-16T08:50:39.814Z,2.23
2018-07-16T08:53:12.762Z,2.10
2018-07-16T08:55:41.035Z,2.20
2018-07-16T08:58:09.210Z,2.33
2018-07-16T09:00:43.836Z,2.30
2018-07-16T09:03:14.629Z,1.90
2018-07-16T09:05:43.125Z,2.30
2018-07-16T09:08:11.426Z,2.33
2018-07-16T09:10:39.588Z,2.00
2018-07-16T09:13:13.216Z,2.37
2018-07-16T09:15:47.610Z,2.37
2018-07-16T09:18:22.237Z,2.03
2018-07-16T09:20:50.409Z,1.90
2018-07-16T09:23:22.647Z,2.17
2018-07-16T09:26:02.569Z,1.80
2018-07-16T09:28:30.805Z,1.93
2018-07-16T09:31:01.864Z,1.90
2018-07-16T09:33:30.221Z,2.43
2018-07-16T09:35:58.421Z,2.23
2018-07-16T09:38:29.481Z,2.20
2018-07-16T09:40:59.686Z,2.10
2018-07-16T09:43:28.009Z,1.80
2018-07-16T09:45:56.233Z,2.03
2018-07-16T09:48:25.107Z,2.17
2018-07-16T09:50:53.270Z,2.10
2018-07-16T09:53:27.640Z,2.10
2018-07-16T09:56:05.894Z,2.10
2018-07-16T09:58:37.173Z,2.20
2018-07-16T10:01:15.280Z,1.80
2018-07-16T10:03:46.512Z,1.97
2018-07-16T10:06:17.524Z,1.83
2018-07-16T10:08:45.731Z,2.20
2018-07-16T10:11:13.888Z,2.10
2018-07-16T10:13:42.445Z,2.00
2018-07-16T10:16:11.374Z,2.03
2018-07-16T10:18:40.285Z,1.80
2018-07-16T10:21:12.672Z,2.00
2018-07-16T10:23:43.081Z,2.13
2018-07-16T10:26:20.825Z,2.10
2018-07-16T10:28:52.198Z,2.20
2018-07-16T10:31:24.853Z,1.90
2018-07-16T10:33:58.121Z,2.50
2018-07-16T10:36:28.404Z,2.30
2018-07-16T10:38:56.759Z,2.17
2018-07-16T10:41:27.997Z,2.23
2018-07-16T10:43:56.203Z,2.33
2018-07-16T10:46:33.952Z,2.30
2018-07-16T10:49:02.165Z,2.30
2018-07-16T10:51:34.536Z,2.20
2018-07-16T10:54:02.830Z,2.27
2018-07-16T10:56:33.991Z,2.20
2018-07-16T10:59:02.380Z,2.10
2018-07-16T11:01:30.708Z,2.20
2018-07-16T11:03:58.889Z,2.23
2018-07-16T11:06:32.055Z,2.27
2018-07-16T11:09:08.259Z,2.23
2018-07-16T11:11:36.491Z,2.30
2018-07-16T11:14:07.440Z,2.20
2018-07-16T11:16:37.682Z,2.37
2018-07-16T11:19:05.963Z,2.23
2018-07-16T11:21:39.631Z,2.00
2018-07-16T11:24:07.812Z,2.30
2018-07-16T11:26:42.402Z,2.20
2018-07-16T11:29:10.612Z,2.33
2018-07-16T11:31:41.643Z,1.97
2018-07-16T11:34:09.929Z,1.90
2018-07-16T11:36:38.216Z,2.20
2018-07-16T11:39:09.362Z,1.87
2018-07-16T11:41:39.510Z,1.90
2018-07-16T11:44:10.089Z,2.30
2018-07-16T11:46:38.385Z,2.10
2018-07-16T11:49:06.567Z,2.10
2018-07-16T11:51:38.793Z,2.10
2018-07-16T11:54:08.994Z,2.20
2018-07-16T11:56:37.728Z,2.20
2018-07-16T11:59:07.988Z,2.20
2018-07-16T12:01:36.451Z,1.77
2018-07-16T12:04:04.827Z,2.40
2018-07-16T12:06:33.014Z,1.90
2018-07-16T12:09:11.383Z,2.23
2018-07-16T12:11:45.925Z,2.00
2018-07-16T12:14:22.599Z,2.63
2018-07-16T12:16:50.787Z,2.30
2018-07-16T12:19:27.645Z,2.27
2018-07-16T12:21:55.858Z,2.70
2018-07-16T12:24:29.948Z,2.77
2018-07-16T12:27:02.281Z,2.30
2018-07-16T12:29:30.519Z,2.33
2018-07-16T12:31:58.683Z,2.20
2018-07-16T12:34:33.055Z,2.30
2018-07-16T12:37:06.201Z,2.27
2018-07-16T12:39:37.330Z,2.17
2018-07-16T12:42:05.595Z,2.10
2018-07-16T12:44:42.553Z,2.37
2018-07-16T12:47:12.818Z,2.70
2018-07-16T12:49:40.961Z,2.10
2018-07-16T12:52:15.633Z,2.30
2018-07-16T12:54:44.020Z,2.20
2018-07-16T12:57:16.391Z,2.50
2018-07-16T12:59:50.938Z,2.50
2018-07-16T13:02:23.244Z,2.43
2018-07-16T13:04:57.849Z,2.23
2018-07-16T13:07:28.700Z,2.73
2018-07-16T13:09:57.219Z,2.10
2018-07-16T13:12:25.562Z,2.37
2018-07-16T13:14:53.727Z,2.50
2018-07-16T13:17:28.047Z,2.13
2018-07-16T13:20:07.432Z,2.20
2018-07-16T13:22:42.108Z,2.23
2018-07-16T13:25:14.485Z,2.30
2018-07-16T13:27:45.459Z,2.30
2018-07-16T13:30:16.125Z,2.37
2018-07-16T13:32:56.120Z,1.97
2018-07-16T13:35:24.290Z,2.20
2018-07-16T13:37:59.333Z,2.33
2018-07-16T13:40:37.694Z,2.47
2018-07-16T13:43:08.470Z,2.57
2018-07-16T13:45:43.692Z,2.53
2018-07-16T13:48:15.960Z,1.87
2018-07-16T13:50:44.523Z,2.10
2018-07-16T13:53:14.998Z,2.50
2018-07-16T13:55:45.203Z,2.30
2018-07-16T13:58:13.465Z,2.13
2018-07-16T14:00:56.363Z,2.20
2018-07-16T14:03:26.620Z,2.17
2018-07-16T14:05:54.804Z,2.00
2018-07-16T14:08:33.102Z,2.30
2018-07-16T14:11:06.186Z,2.40
2018-07-16T14:13:34.433Z,2.40
2018-07-16T14:16:02.687Z,2.20
2018-07-16T14:18:39.289Z,2.50
2018-07-16T14:21:07.501Z,2.40
2018-07-16T14:23:39.863Z,2.20
2018-07-16T14:26:12.125Z,2.10
2018-07-16T14:28:51.962Z,2.20
2018-07-16T14:31:20.201Z,2.20
2018-07-16T14:34:02.225Z,2.50
2018-07-16T14:36:32.471Z,2.20
2018-07-16T14:39:00.648Z,2.40
2018-07-16T14:41:33.056Z,1.90
2018-07-16T14:44:07.609Z,2.00
2018-07-16T14:46:43.116Z,2.00
2018-07-16T14:49:18.404Z,2.30
2018-07-16T14:51:50.614Z,2.07
2018-07-16T14:54:20.890Z,2.20
2018-07-16T14:56:49.191Z,2.10
2018-07-16T14:59:17.384Z,2.23
2018-07-16T15:04:25.461Z,2.10
2018-07-16T15:06:59.939Z,2.17
2018-07-16T15:09:28.187Z,2.10
2018-07-16T15:12:08.238Z,2.17
2018-07-16T15:14:39.006Z,2.33
2018-07-16T15:17:20.712Z,2.20
2018-07-16T15:19:48.923Z,1.93
2018-07-16T15:22:23.205Z,1.90
2018-07-16T15:24:56.364Z,2.20
2018-07-16T15:27:24.662Z,1.80
2018-07-16T15:29:52.885Z,1.70
2018-07-16T15:32:33.474Z,2.17
2018-07-16T15:35:01.851Z,2.40
2018-07-16T15:37:35.113Z,2.00
2018-07-16T15:40:13.546Z,1.90
2018-07-16T15:42:47.846Z,2.07
2018-07-16T15:45:20.132Z,2.70
2018-07-16T15:47:53.999Z,2.40
2018-07-16T15:50:29.943Z,2.00
2018-07-16T15:52:58.250Z,1.90
2018-07-16T15:55:26.557Z,1.90
2018-07-16T15:57:54.851Z,2.03
2018-07-16T16:00:28.897Z,2.00
2018-07-16T16:02:59.279Z,1.80
2018-07-16T16:05:29.475Z,1.77
2018-07-16T16:07:57.689Z,2.00
2018-07-16T16:10:25.813Z,1.70
2018-07-16T16:12:54.123Z,1.90
2018-07-16T16:15:22.368Z,1.70
2018-07-16T16:17:56.863Z,2.00
2018-07-16T16:20:25.056Z,2.07
2018-07-16T16:22:58.284Z,1.70
2018-07-16T16:25:40.232Z,1.77
2018-07-16T16:28:08.458Z,1.70
2018-07-16T16:30:39.611Z,1.93
2018-07-16T16:33:09.821Z,1.80
2018-07-16T16:35:37.970Z,2.20
2018-07-16T16:38:10.344Z,1.80
2018-07-16T16:40:45.705Z,1.60
2018-07-16T16:43:20.202Z,1.80
2018-07-16T16:45:52.419Z,1.90
2018-07-16T16:48:22.669Z,1.70
2018-07-16T16:50:50.878Z,1.87
2018-07-16T16:53:25.276Z,1.80
2018-07-16T16:58:33.466Z,2.10
2018-07-16T17:01:01.614Z,1.80
2018-07-16T17:03:37.058Z,1.93
2018-07-16T17:06:11.679Z,1.80
2018-07-16T17:08:39.839Z,1.87
2018-07-16T17:11:14.440Z,1.70
2018-07-16T17:13:48.979Z,1.93
2018-07-16T17:16:20.025Z,2.10
2018-07-16T17:19:00.706Z,1.90
2018-07-16T17:21:40.583Z,1.90
2018-07-16T17:24:09.228Z,2.27
2018-07-16T17:26:39.476Z,2.07
2018-07-16T17:29:07.610Z,1.90
2018-07-16T17:31:35.796Z,2.00
2018-07-16T17:34:06.917Z,2.10
2018-07-16T17:36:35.569Z,2.10
2018-07-16T17:39:06.136Z,2.30
2018-07-16T17:41:36.359Z,2.07
2018-07-16T17:44:04.591Z,2.23
2018-07-16T17:46:38.973Z,2.10
2018-07-16T17:49:20.986Z,2.10
2018-07-16T17:51:51.390Z,2.23
2018-07-16T17:54:21.627Z,2.27
2018-07-16T17:56:49.800Z,2.90
2018-07-16T17:59:29.529Z,2.67
2018-07-16T18:01:57.800Z,2.27
2018-07-16T18:04:27.801Z,2.80
2018-07-16T18:07:07.784Z,2.40
2018-07-16T18:09:36.358Z,2.23
2018-07-16T18:12:04.438Z,2.67
2018-07-16T18:14:38.457Z,2.40
2018-07-16T18:17:06.674Z,2.30
2018-07-16T18:19:41.220Z,2.10
2018-07-16T18:22:09.513Z,2.50
2018-07-16T18:24:38.299Z,2.70
2018-07-16T18:27:06.461Z,2.50
2018-07-16T18:29:37.597Z,2.70
2018-07-16T18:34:43.909Z,2.80
2018-07-16T18:37:15.149Z,2.40
2018-07-16T18:39:46.231Z,2.00
2018-07-16T18:42:14.356Z,2.87
2018-07-16T18:44:49.924Z,2.40
2018-07-16T18:47:17.949Z,2.57
2018-07-16T18:49:52.504Z,2.60
2018-07-16T18:52:28.860Z,2.30
2018-07-16T18:55:01.036Z,2.60
2018-07-16T18:57:29.742Z,2.50
2018-07-16T18:59:57.786Z,2.27
2018-07-16T19:02:25.982Z,2.30
2018-07-16T19:04:58.132Z,2.47
2018-07-16T19:07:28.691Z,2.97
2018-07-16T19:10:08.478Z,2.77
2018-07-16T19:12:39.553Z,2.67
2018-07-16T19:15:41.910Z,2.70
2018-07-16T19:18:14.975Z,2.73
2018-07-16T19:20:43.450Z,2.77
2018-07-16T19:23:11.577Z,2.83
2018-07-16T19:25:42.502Z,2.53
2018-07-16T19:28:12.746Z,2.77
2018-07-16T19:30:41.062Z,3.03
2018-07-16T19:33:11.969Z,2.83
2018-07-16T19:35:40.456Z,3.03
2018-07-16T19:38:08.796Z,2.70
2018-07-16T19:40:36.995Z,3.13
2018-07-16T19:43:09.926Z,2.80
2018-07-16T19:45:41.045Z,3.20
2018-07-16T19:48:09.257Z,3.00
2018-07-16T19:50:43.967Z,3.30
2018-07-16T19:53:12.174Z,3.47
2018-07-16T19:55:46.493Z,2.87
2018-07-16T19:58:22.573Z,2.90
2018-07-16T20:00:50.711Z,3.47
2018-07-16T20:03:25.360Z,2.90
2018-07-16T20:05:53.519Z,2.77
2018-07-16T20:08:24.556Z,3.10
2018-07-16T20:10:52.684Z,2.90
2018-07-16T20:13:20.980Z,3.47
2018-07-16T20:15:55.410Z,3.30
2018-07-16T20:18:28.614Z,3.27
2018-07-16T20:21:07.418Z,3.50
2018-07-16T20:23:40.426Z,3.23
2018-07-16T20:26:10.604Z,3.10
2018-07-16T20:28:38.708Z,3.47
2018-07-16T20:31:12.241Z,3.33
2018-07-16T20:33:50.360Z,3.40
2018-07-16T20:36:22.830Z,3.40
2018-07-16T20:39:05.900Z,3.10
2018-07-16T20:41:34.629Z,3.53
2018-07-16T20:44:14.686Z,3.23
2018-07-16T20:46:42.885Z,3.27
2018-07-16T20:49:16.950Z,3.17
2018-07-16T20:51:55.676Z,3.67
2018-07-16T20:54:28.357Z,3.37
2018-07-16T20:56:56.650Z,3.37
2018-07-16T20:59:29.791Z,3.17
2018-07-16T21:02:01.536Z,3.57
2018-07-16T21:04:34.598Z,3.53
2018-07-16T21:07:03.061Z,3.33
2018-07-16T21:09:31.409Z,3.17
2018-07-16T21:11:59.608Z,3.40
2018-07-16T21:14:32.641Z,3.07
2018-07-16T21:17:14.576Z,3.40
2018-07-16T21:19:42.831Z,3.07
2018-07-16T21:22:17.159Z,3.23
2018-07-16T21:24:48.165Z,3.40
2018-07-16T21:27:16.260Z,3.27
2018-07-16T21:29:51.536Z,3.77
2018-07-16T21:32:22.176Z,3.23
2018-07-16T21:34:56.821Z,3.40
2018-07-16T21:37:25.090Z,3.63
2018-07-16T21:40:00.343Z,3.70
2018-07-16T21:42:34.407Z,3.83
2018-07-16T21:45:02.679Z,3.90
2018-07-16T21:47:35.189Z,3.80
2018-07-16T21:50:03.559Z,4.07
2018-07-16T21:52:37.960Z,4.57
2018-07-16T21:55:12.597Z,3.93
2018-07-16T21:57:40.705Z,4.07
2018-07-16T22:00:17.732Z,4.17
2018-07-16T22:02:45.905Z,3.70
2018-07-16T22:05:16.747Z,4.13
2018-07-16T22:07:44.901Z,4.00
2018-07-16T22:10:17.327Z,4.37
2018-07-16T22:12:50.482Z,3.67
2018-07-16T22:15:24.236Z,4.03
2018-07-16T22:17:53.545Z,4.10
2018-07-16T22:20:28.703Z,4.23
2018-07-16T22:23:09.302Z,4.00
2018-07-16T22:25:41.528Z,3.93
2018-07-16T22:28:15.583Z,4.20
2018-07-16T22:30:43.821Z,4.10
2018-07-16T22:33:16.152Z,3.80
2018-07-16T22:35:50.697Z,3.97
2018-07-16T22:38:30.529Z,4.03
2018-07-16T22:40:58.839Z,3.90
2018-07-16T22:43:27.037Z,4.43
2018-07-16T22:46:06.939Z,4.00
2018-07-16T22:48:35.264Z,3.97
2018-07-16T22:51:03.455Z,5.20
2018-07-16T22:53:38.030Z,4.07
2018-07-16T22:56:11.336Z,4.43
2018-07-16T22:58:48.933Z,4.60
2018-07-16T23:01:20.161Z,4.20
2018-07-16T23:03:51.108Z,4.30
2018-07-16T23:06:19.311Z,4.37
2018-07-16T23:08:54.254Z,4.50
2018-07-16T23:11:24.457Z,4.87
2018-07-16T23:13:52.624Z,4.47
2018-07-16T23:16:27.352Z,4.17
2018-07-16T23:18:55.531Z,4.83
2018-07-16T23:21:31.004Z,4.23
2018-07-16T23:24:02.130Z,4.57
2018-07-16T23:26:32.723Z,4.67
2018-07-16T23:29:11.023Z,4.73
2018-07-16T23:31:39.278Z,4.43
2018-07-16T23:34:07.610Z,4.67
2018-07-16T23:36:35.773Z,4.60
2018-07-16T23:39:09.244Z,4.47
2018-07-16T23:41:42.677Z,5.17
2018-07-16T23:44:10.764Z,4.80
2018-07-16T23:46:38.996Z,4.63
2018-07-16T23:49:11.605Z,4.47
2018-07-16T23:51:39.779Z,5.27
2018-07-16T23:54:12.133Z,4.83
2018-07-16T23:56:54.263Z,5.13
2018-07-16T23:59:25.511Z,4.77
